createdAt,value
2023-04-03T00:01:03.697Z,-0.25
2023-04-03T00:04:11.275Z,-0.23
2023-04-03T00:07:17.075Z,-0.12
2023-04-03T00:10:26.703Z,-0.20
2023-04-03T00:13:32.624Z,-0.19
2023-04-03T00:16:39.280Z,-0.14
2023-04-03T00:19:44.977Z,-0.16
2023-04-03T00:22:51.840Z,-0.07
2023-04-03T00:26:00.706Z,-0.21
2023-04-03T00:29:07.767Z,-0.21
2023-04-03T00:32:13.820Z,-0.44
2023-04-03T00:35:21.373Z,-0.36
2023-04-03T00:38:27.253Z,-0.34
2023-04-03T00:41:36.739Z,-0.41
2023-04-03T00:45:32.949Z,-0.30
2023-04-03T00:48:46.978Z,-0.25
2023-04-03T00:51:53.390Z,-0.24
2023-04-03T00:55:08.183Z,-0.28
2023-04-03T00:58:19.747Z,-0.27
2023-04-03T01:01:34.763Z,-0.25
2023-04-03T01:04:44.121Z,-0.23
2023-04-03T01:07:55.355Z,-0.27
2023-04-03T01:11:02.010Z,-0.22
2023-04-03T01:14:11.476Z,-0.26
2023-04-03T01:17:34.067Z,-0.37
2023-04-03T01:21:46.301Z,-0.37
2023-04-03T01:24:52.527Z,-0.62
2023-04-03T01:27:59.728Z,-0.79
2023-04-03T01:31:26.571Z,-0.51
2023-04-03T01:34:37.812Z,-0.49
2023-04-03T01:37:44.217Z,-0.53
2023-04-03T01:40:50.896Z,-0.52
2023-04-03T01:43:56.961Z,-0.60
2023-04-03T01:47:03.572Z,-0.59
2023-04-03T01:50:13.974Z,-0.59
2023-04-03T01:53:21.179Z,-0.57
2023-04-03T01:56:27.999Z,-0.66
2023-04-03T01:59:35.939Z,-0.65
2023-04-03T02:02:42.240Z,-0.53
2023-04-03T02:05:51.609Z,-0.59
2023-04-03T02:08:57.456Z,-0.81
2023-04-03T02:12:04.456Z,-0.85
2023-04-03T02:15:12.759Z,-0.86
2023-04-03T02:18:21.174Z,-0.87
2023-04-03T02:21:29.757Z,-0.86
2023-04-03T02:24:36.931Z,-0.94
2023-04-03T02:27:43.022Z,-0.98
2023-04-03T02:30:51.030Z,-0.94
2023-04-03T02:33:57.575Z,-1.00
2023-04-03T02:37:07.609Z,-1.01
2023-04-03T02:40:14.965Z,-0.93
2023-04-03T02:43:22.248Z,-0.98
2023-04-03T02:46:28.449Z,-0.86
2023-04-03T02:49:36.628Z,-0.88
2023-04-03T02:52:45.147Z,-0.94
2023-04-03T02:55:52.259Z,-0.97
2023-04-03T02:58:58.626Z,-0.86
2023-04-03T03:02:05.985Z,-0.82
2023-04-03T03:05:13.268Z,-0.92
2023-04-03T03:08:22.908Z,-0.86
2023-04-03T03:11:29.093Z,-0.97
2023-04-03T03:14:35.889Z,-0.97
2023-04-03T03:17:42.006Z,-1.11
2023-04-03T03:20:48.764Z,-1.08
2023-04-03T03:23:57.442Z,-0.95
2023-04-03T03:27:04.260Z,-1.02
2023-04-03T03:30:12.129Z,-1.34
2023-04-03T03:33:18.751Z,-1.27
2023-04-03T03:36:25.074Z,-1.25
2023-04-03T03:39:34.646Z,-1.45
2023-04-03T03:42:40.473Z,-1.42
2023-04-03T03:45:48.079Z,-1.36
2023-04-03T03:48:54.223Z,-1.47
2023-04-03T03:52:01.010Z,-1.46
2023-04-03T03:55:11.049Z,-1.53
2023-04-03T03:58:17.575Z,-1.46
2023-04-03T04:01:23.668Z,-1.44
2023-04-03T04:04:30.920Z,-1.57
2023-04-03T04:07:36.878Z,-1.65
2023-04-03T04:10:46.745Z,-1.65
2023-04-03T04:13:54.736Z,-1.72
2023-04-03T04:17:06.355Z,-1.78
2023-04-03T04:20:13.702Z,-1.78
2023-04-03T04:23:22.288Z,-1.87
2023-04-03T04:26:32.565Z,-1.83
2023-04-03T04:29:39.413Z,-1.80
2023-04-03T04:32:48.206Z,-1.92
2023-04-03T04:35:54.944Z,-2.01
2023-04-03T04:39:01.524Z,-2.24
2023-04-03T04:42:15.121Z,-2.01
2023-04-03T04:45:24.345Z,-2.08
2023-04-03T04:48:32.726Z,-2.12
2023-04-03T04:51:51.051Z,-2.08
2023-04-03T04:55:01.397Z,-2.18
2023-04-03T04:58:10.079Z,-2.06
2023-04-03T05:01:17.265Z,-2.16
2023-04-03T05:04:34.531Z,-2.11
2023-04-03T05:07:48.239Z,-2.05
2023-04-03T05:11:00.676Z,-2.03
2023-04-03T05:14:11.072Z,-2.18
2023-04-03T05:17:16.979Z,-2.30
2023-04-03T05:20:29.421Z,-2.17
2023-04-03T05:23:35.221Z,-2.14
2023-04-03T05:26:43.510Z,-2.18
2023-04-03T05:29:52.969Z,-2.13
2023-04-03T05:33:03.544Z,-2.34
2023-04-03T05:36:32.840Z,-2.37
2023-04-03T05:39:45.222Z,-2.46
2023-04-03T05:42:51.448Z,-2.40
2023-04-03T05:46:03.011Z,-2.38
2023-04-03T05:49:09.400Z,-2.47
2023-04-03T05:52:27.744Z,-2.48
2023-04-03T05:55:34.013Z,-2.46
2023-04-03T05:58:40.690Z,-2.31
2023-04-03T06:01:49.438Z,-2.36
2023-04-03T06:04:57.075Z,-2.27
2023-04-03T06:08:03.137Z,-2.25
2023-04-03T06:11:11.437Z,-2.15
2023-04-03T06:14:23.395Z,-2.09
2023-04-03T06:17:33.166Z,-2.12
2023-04-03T06:20:39.045Z,-2.04
2023-04-03T06:23:46.001Z,-1.87
2023-04-03T06:26:52.642Z,-1.88
2023-04-03T06:29:59.417Z,-1.82
2023-04-03T06:33:08.425Z,-1.74
2023-04-03T06:36:16.794Z,-1.68
2023-04-03T06:39:25.662Z,-1.64
2023-04-03T06:42:32.597Z,-1.76
2023-04-03T06:45:48.220Z,-1.79
2023-04-03T06:48:57.972Z,-1.97
2023-04-03T06:52:03.751Z,-1.98
2023-04-03T06:55:11.827Z,-1.89
2023-04-03T06:58:19.880Z,-2.05
2023-04-03T07:01:31.282Z,-2.01
2023-04-03T07:04:39.774Z,-2.24
2023-04-03T07:07:46.616Z,-2.20
2023-04-03T07:10:52.435Z,-2.16
2023-04-03T07:13:59.042Z,-1.93
2023-04-03T07:17:04.704Z,-1.95
2023-04-03T07:20:16.493Z,-1.70
2023-04-03T07:23:22.569Z,-1.53
2023-04-03T07:26:29.293Z,-1.55
2023-04-03T07:29:35.112Z,-1.56
2023-04-03T07:32:41.871Z,-1.58
2023-04-03T07:35:51.385Z,-1.84
2023-04-03T07:38:57.801Z,-1.98
2023-04-03T07:42:10.707Z,-1.91
2023-04-03T07:45:18.648Z,-1.99
2023-04-03T07:48:26.807Z,-1.95
2023-04-03T07:51:36.668Z,-1.66
2023-04-03T07:54:42.801Z,-1.60
2023-04-03T07:57:49.343Z,-1.35
2023-04-03T08:00:58.027Z,-1.36
2023-04-03T08:04:04.972Z,-1.26
2023-04-03T08:07:13.368Z,-1.19
2023-04-03T08:10:20.179Z,-1.38
2023-04-03T08:13:26.945Z,-1.39
2023-04-03T08:16:33.503Z,-1.36
2023-04-03T08:19:39.767Z,-1.52
2023-04-03T08:22:49.661Z,-1.50
2023-04-03T08:25:55.385Z,-1.55
2023-04-03T08:29:02.012Z,-1.73
2023-04-03T08:32:08.200Z,-1.66
2023-04-03T08:35:15.795Z,-1.66
2023-04-03T08:38:24.401Z,-1.61
2023-04-03T08:41:41.165Z,-1.65
2023-04-03T08:44:59.148Z,-1.61
2023-04-03T08:48:11.685Z,-1.56
2023-04-03T08:51:21.803Z,-1.86
2023-04-03T08:54:39.648Z,-1.84
2023-04-03T08:57:50.341Z,-1.82
2023-04-03T09:01:05.312Z,-1.68
2023-04-03T09:04:20.329Z,-1.71
2023-04-03T09:07:43.326Z,-1.67
2023-04-03T09:10:53.357Z,-1.75
2023-04-03T09:14:12.153Z,-1.55
2023-04-03T09:17:38.743Z,-1.58
2023-04-03T09:20:58.570Z,-1.56
2023-04-03T09:24:10.566Z,-1.47
2023-04-03T09:27:20.012Z,-1.38
2023-04-03T09:30:28.809Z,-1.16
2023-04-03T09:33:35.629Z,-1.19
2023-04-03T09:36:48.501Z,-1.38
2023-04-03T09:39:57.996Z,-1.40
2023-04-03T09:43:25.733Z,-1.19
2023-04-03T09:46:39.042Z,-0.98
2023-04-03T09:49:44.863Z,-1.02
2023-04-03T09:52:54.328Z,-0.84
2023-04-03T09:56:01.320Z,-0.71
2023-04-03T09:59:21.639Z,-0.63
2023-04-03T10:02:41.114Z,-0.58
2023-04-03T10:05:47.729Z,-0.35
2023-04-03T10:09:05.769Z,-0.54
2023-04-03T10:12:15.836Z,-0.48
2023-04-03T10:15:24.765Z,-0.49
2023-04-03T10:18:43.502Z,-0.48
2023-04-03T10:22:01.960Z,-0.22
2023-04-03T10:25:21.923Z,-0.19
2023-04-03T10:28:42.692Z,-0.29
2023-04-03T10:32:07.413Z,-0.21
2023-04-03T10:35:29.659Z,-0.03
2023-04-03T10:38:53.118Z,0.10
2023-04-03T10:42:17.929Z,-0.29
2023-04-03T10:45:36.831Z,0.12
2023-04-03T10:49:14.915Z,0.19
2023-04-03T10:52:34.353Z,0.17
2023-04-03T10:55:55.954Z,0.25
2023-04-03T10:59:19.775Z,0.37
2023-04-03T11:02:31.930Z,-0.15
2023-04-03T11:05:51.878Z,0.15
2023-04-03T11:09:08.027Z,0.33
2023-04-03T11:12:24.960Z,0.51
2023-04-03T11:15:37.484Z,0.48
2023-04-03T11:18:54.097Z,0.63
2023-04-03T11:22:15.317Z,0.58
2023-04-03T11:25:27.826Z,0.50
2023-04-03T11:28:33.551Z,0.46
2023-04-03T11:32:33.011Z,0.55
2023-04-03T11:35:41.650Z,0.42
2023-04-03T11:38:58.620Z,0.46
2023-04-03T11:42:27.935Z,0.69
2023-04-03T11:45:43.004Z,0.72
2023-04-03T11:48:57.750Z,0.75
2023-04-03T11:52:04.248Z,0.86
2023-04-03T11:56:04.509Z,0.85
2023-04-03T11:59:30.008Z,1.08
2023-04-03T12:02:53.858Z,1.02
2023-04-03T12:06:37.143Z,1.45
2023-04-03T12:10:31.581Z,1.53
2023-04-03T12:13:41.027Z,1.60
2023-04-03T12:16:53.235Z,1.66
2023-04-03T12:20:00.407Z,1.83
2023-04-03T12:23:27.590Z,1.96
2023-04-03T12:26:49.124Z,2.14
2023-04-03T12:30:08.207Z,2.13
2023-04-03T12:33:36.907Z,2.03
2023-04-03T12:36:59.680Z,1.90
2023-04-03T12:40:20.850Z,1.89
2023-04-03T12:43:59.835Z,1.62
2023-04-03T12:47:23.604Z,1.44
2023-04-03T12:50:35.286Z,1.62
2023-04-03T12:53:44.173Z,1.73
2023-04-03T12:56:50.453Z,1.58
2023-04-03T12:59:59.869Z,1.78
2023-04-03T13:03:09.367Z,1.79
2023-04-03T13:06:25.291Z,1.62
2023-04-03T13:09:33.856Z,1.59
2023-04-03T13:12:51.802Z,1.43
2023-04-03T13:16:01.667Z,1.44
2023-04-03T13:19:08.207Z,1.63
2023-04-03T13:22:35.457Z,1.69
2023-04-03T13:25:49.333Z,1.84
2023-04-03T13:28:55.540Z,1.83
2023-04-03T13:32:08.677Z,1.92
2023-04-03T13:35:33.431Z,2.06
2023-04-03T13:38:40.664Z,2.10
2023-04-03T13:41:53.438Z,2.22
2023-04-03T13:45:26.055Z,2.40
2023-04-03T13:48:45.457Z,2.56
2023-04-03T13:52:04.355Z,2.48
2023-04-03T13:55:27.099Z,2.51
2023-04-03T13:58:35.835Z,2.40
2023-04-03T14:01:52.165Z,2.48
2023-04-03T14:05:05.498Z,2.34
2023-04-03T14:08:11.411Z,2.28
2023-04-03T14:11:25.053Z,2.08
2023-04-03T14:14:37.476Z,2.09
2023-04-03T14:17:44.117Z,2.06
2023-04-03T14:20:54.240Z,1.81
2023-04-03T14:24:00.882Z,1.91
2023-04-03T14:27:07.324Z,1.92
2023-04-03T14:30:21.956Z,1.85
2023-04-03T14:33:29.332Z,1.74
2023-04-03T14:36:39.539Z,1.56
2023-04-03T14:39:47.258Z,1.57
2023-04-03T14:42:56.482Z,1.45
2023-04-03T14:46:02.926Z,1.32
2023-04-03T14:49:20.119Z,1.46
2023-04-03T14:52:32.691Z,1.61
2023-04-03T14:55:39.464Z,1.76
2023-04-03T14:58:45.184Z,1.67
2023-04-03T15:01:52.411Z,1.60
2023-04-03T15:04:58.431Z,1.55
2023-04-03T15:08:08.093Z,1.56
2023-04-03T15:11:15.472Z,1.57
2023-04-03T15:14:35.681Z,1.38
2023-04-03T15:17:45.186Z,1.54
2023-04-03T15:20:53.120Z,1.66
2023-04-03T15:24:02.208Z,1.54
2023-04-03T15:27:08.980Z,1.52
2023-04-03T15:30:20.933Z,1.40
2023-04-03T15:33:27.699Z,1.34
2023-04-03T15:36:34.885Z,1.33
2023-04-03T15:39:44.373Z,1.26
2023-04-03T15:42:51.303Z,1.37
2023-04-03T15:46:03.178Z,1.37
2023-04-03T15:49:09.918Z,1.40
2023-04-03T15:52:16.624Z,1.34
2023-04-03T15:55:25.624Z,1.35
2023-04-03T15:58:32.656Z,1.47
2023-04-03T16:01:38.960Z,1.28
2023-04-03T16:04:46.267Z,1.31
2023-04-03T16:07:52.445Z,1.30
2023-04-03T16:11:02.135Z,1.19
2023-04-03T16:14:08.029Z,1.28
2023-04-03T16:17:15.316Z,1.27
2023-04-03T16:20:23.687Z,1.01
2023-04-03T16:23:30.628Z,0.99
2023-04-03T16:26:39.214Z,1.04
2023-04-03T16:29:45.960Z,1.09
2023-04-03T16:32:52.472Z,1.06
2023-04-03T16:35:59.260Z,0.91
2023-04-03T16:39:05.490Z,0.76
2023-04-03T16:42:15.582Z,0.57
2023-04-03T16:45:21.771Z,0.62
2023-04-03T16:48:28.439Z,0.60
2023-04-03T16:51:34.941Z,0.60
2023-04-03T16:54:42.314Z,0.62
2023-04-03T16:57:51.496Z,0.56
2023-04-03T17:00:58.224Z,0.45
2023-04-03T17:04:04.190Z,0.58
2023-04-03T17:07:10.883Z,0.56
2023-04-03T17:10:19.307Z,0.46
2023-04-03T17:13:33.324Z,0.46
2023-04-03T17:16:41.609Z,0.38
2023-04-03T17:19:49.474Z,0.38
2023-04-03T17:22:56.036Z,0.35
2023-04-03T17:26:02.689Z,0.44
2023-04-03T17:29:12.132Z,0.32
2023-04-03T17:32:18.943Z,0.38
2023-04-03T17:35:24.890Z,0.33
2023-04-03T17:38:32.021Z,0.34
2023-04-03T17:41:37.854Z,0.21
2023-04-03T17:44:47.617Z,0.18
2023-04-03T17:47:55.385Z,0.11
2023-04-03T17:51:02.309Z,0.11
2023-04-03T17:54:08.202Z,-0.03
2023-04-03T17:57:15.210Z,0.09
2023-04-03T18:00:24.785Z,0.08
2023-04-03T18:03:31.661Z,0.10
2023-04-03T18:06:44.914Z,0.10
2023-04-03T18:09:56.484Z,0.03
2023-04-03T18:13:02.822Z,0.01
2023-04-03T18:16:16.905Z,-0.16
2023-04-03T18:19:23.976Z,-0.09
2023-04-03T18:22:32.832Z,-0.03
2023-04-03T18:25:40.676Z,0.02
2023-04-03T18:28:54.025Z,0.02
2023-04-03T18:32:07.056Z,0.08
2023-04-03T18:35:14.682Z,-0.11
2023-04-03T18:38:23.591Z,0.16
2023-04-03T18:41:37.213Z,0.01
2023-04-03T18:44:47.892Z,-0.08
2023-04-03T18:48:00.125Z,-0.03
2023-04-03T18:51:06.425Z,-0.03
2023-04-03T18:54:13.503Z,0.03
2023-04-03T18:57:19.501Z,0.11
2023-04-03T19:00:26.401Z,0.19
2023-04-03T19:03:38.912Z,0.05
2023-04-03T19:06:46.105Z,0.05
2023-04-03T19:09:52.495Z,-0.10
2023-04-03T19:12:59.040Z,-0.04
2023-04-03T19:16:04.819Z,-0.06
2023-04-03T19:19:14.547Z,-0.09
2023-04-03T19:22:20.284Z,-0.08
2023-04-03T19:25:27.297Z,-0.03
2023-04-03T19:28:33.851Z,-0.03
2023-04-03T19:31:43.748Z,-0.07
2023-04-03T19:34:52.287Z,-0.03
2023-04-03T19:37:59.039Z,0.03
2023-04-03T19:41:07.035Z,-0.02
2023-04-03T19:44:14.253Z,-0.15
2023-04-03T19:47:22.635Z,-0.13
2023-04-03T19:50:33.193Z,-0.16
2023-04-03T19:53:39.672Z,-0.11
2023-04-03T19:56:47.687Z,-0.16
2023-04-03T19:59:53.533Z,-0.24
2023-04-03T20:03:00.526Z,-0.19
2023-04-03T20:06:09.552Z,-0.15
2023-04-03T20:09:20.116Z,-0.14
2023-04-03T20:12:29.473Z,-0.22
2023-04-03T20:16:03.610Z,-0.22
2023-04-03T20:19:27.054Z,-0.23
2023-04-03T20:22:39.947Z,-0.28
2023-04-03T20:25:57.690Z,-0.32
2023-04-03T20:29:09.037Z,-0.32
2023-04-03T20:32:17.005Z,-0.27
2023-04-03T20:35:23.604Z,-0.30
2023-04-03T20:38:32.238Z,-0.25
2023-04-03T20:41:39.841Z,-0.26
2023-04-03T20:44:46.489Z,-0.36
2023-04-03T20:47:54.214Z,-0.36
2023-04-03T20:51:00.343Z,-0.35
2023-04-03T20:54:10.019Z,-0.37
2023-04-03T20:57:15.934Z,-0.50
2023-04-03T21:00:23.803Z,-0.41
2023-04-03T21:03:33.026Z,-0.45
2023-04-03T21:07:38.126Z,-0.47
2023-04-03T21:11:39.844Z,-0.46
2023-04-03T21:15:45.616Z,-0.46
2023-04-03T21:19:12.721Z,-0.50
2023-04-03T21:22:19.520Z,-0.52
2023-04-03T21:25:25.396Z,-0.52
2023-04-03T21:28:32.966Z,-0.65
2023-04-03T21:31:58.055Z,-0.60
2023-04-03T21:35:09.862Z,-0.79
2023-04-03T21:38:15.936Z,-0.87
2023-04-03T21:41:22.421Z,-0.88
2023-04-03T21:44:29.065Z,-0.93
2023-04-03T21:47:35.913Z,-0.97
2023-04-03T21:50:44.394Z,-1.01
2023-04-03T21:53:54.726Z,-1.01
2023-04-03T21:57:00.435Z,-1.07
2023-04-03T22:00:11.203Z,-1.00
2023-04-03T22:03:24.361Z,-1.01
2023-04-03T22:06:33.775Z,-1.15
2023-04-03T22:09:39.862Z,-1.26
2023-04-03T22:12:46.882Z,-1.42
2023-04-03T22:15:52.842Z,-1.41
2023-04-03T22:18:59.983Z,-1.47
2023-04-03T22:22:09.254Z,-1.49
2023-04-03T22:25:16.104Z,-1.57
2023-04-03T22:28:22.324Z,-1.59
2023-04-03T22:31:29.190Z,-1.69
2023-04-03T22:34:35.304Z,-1.72
2023-04-03T22:37:45.071Z,-1.73
2023-04-03T22:40:51.022Z,-1.79
2023-04-03T22:43:58.087Z,-1.88
2023-04-03T22:47:03.946Z,-1.87
2023-04-03T22:50:11.557Z,-1.79
2023-04-03T22:53:20.413Z,-1.93
2023-04-03T22:56:27.002Z,-1.83
2023-04-03T22:59:33.188Z,-1.85
2023-04-03T23:02:39.874Z,-2.03
2023-04-03T23:05:45.583Z,-1.99
2023-04-03T23:08:55.048Z,-1.98
2023-04-03T23:12:00.818Z,-2.00
2023-04-03T23:15:08.449Z,-2.00
2023-04-03T23:18:14.027Z,-2.09
2023-04-03T23:21:20.574Z,-2.02
2023-04-03T23:24:29.062Z,-2.05
2023-04-03T23:27:35.557Z,-2.22
2023-04-03T23:30:42.454Z,-2.24
2023-04-03T23:33:49.156Z,-2.27
2023-04-03T23:36:54.786Z,-2.35
2023-04-03T23:40:04.400Z,-2.36
2023-04-03T23:43:10.136Z,-2.43
2023-04-03T23:46:16.876Z,-2.73
2023-04-03T23:49:22.847Z,-2.45
2023-04-03T23:52:30.884Z,-2.61
2023-04-03T23:55:39.720Z,-2.58
2023-04-03T23:58:46.642Z,-2.58
